sensor_id;sensor_type;location;lat;lon;timestamp;pressure;altitude;pressure_sealevel;temperature;humidity
56719;BME280;42597;40.636;0.278;2023-05-23T00:01:14;97090.09;;;17.59;74.16
56719;BME280;42597;40.636;0.278;2023-05-23T00:03:41;97094.00;;;17.80;72.25
56719;BME280;42597;40.636;0.278;2023-05-23T00:06:07;97094.00;;;17.80;72.77
56719;BME280;42597;40.636;0.278;2023-05-23T00:08:33;97092.47;;;17.54;73.96
56719;BME280;42597;40.636;0.278;2023-05-23T00:10:59;97083.09;;;17.51;74.11
56719;BME280;42597;40.636;0.278;2023-05-23T00:13:24;97085.00;;;17.93;71.16
56719;BME280;42597;40.636;0.278;2023-05-23T00:15:51;97083.88;;;17.62;73.35
56719;BME280;42597;40.636;0.278;2023-05-23T00:18:17;97083.09;;;17.58;73.51
56719;BME280;42597;40.636;0.278;2023-05-23T00:20:44;97070.13;;;18.05;70.28
56719;BME280;42597;40.636;0.278;2023-05-23T00:23:11;97078.34;;;17.94;70.71
56719;BME280;42597;40.636;0.278;2023-05-23T00:25:44;97077.94;;;17.99;70.71
56719;BME280;42597;40.636;0.278;2023-05-23T00:28:13;97079.44;;;18.18;69.27
56719;BME280;42597;40.636;0.278;2023-05-23T00:30:38;97077.56;;;17.94;71.24
56719;BME280;42597;40.636;0.278;2023-05-23T00:33:04;97078.25;;;18.16;69.16
56719;BME280;42597;40.636;0.278;2023-05-23T00:35:30;97076.31;;;18.16;68.80
56719;BME280;42597;40.636;0.278;2023-05-23T00:37:56;97072.00;;;18.15;68.52
56719;BME280;42597;40.636;0.278;2023-05-23T00:40:22;97065.75;;;18.18;68.63
56719;BME280;42597;40.636;0.278;2023-05-23T00:42:47;97071.91;;;18.37;66.96
56719;BME280;42597;40.636;0.278;2023-05-23T00:45:14;97063.97;;;18.60;65.47
56719;BME280;42597;40.636;0.278;2023-05-23T00:47:40;97058.16;;;18.55;65.54
56719;BME280;42597;40.636;0.278;2023-05-23T00:50:15;97053.47;;;18.52;65.80
56719;BME280;42597;40.636;0.278;2023-05-23T00:52:42;97050.94;;;18.86;63.45
56719;BME280;42597;40.636;0.278;2023-05-23T00:55:09;97050.84;;;18.34;66.71
56719;BME280;42597;40.636;0.278;2023-05-23T00:57:35;97040.41;;;18.07;68.64
56719;BME280;42597;40.636;0.278;2023-05-23T01:00:06;97038.75;;;18.28;67.98
56719;BME280;42597;40.636;0.278;2023-05-23T01:02:46;97028.91;;;18.41;67.80
56719;BME280;42597;40.636;0.278;2023-05-23T01:05:16;97042.25;;;18.32;67.68
56719;BME280;42597;40.636;0.278;2023-05-23T01:07:46;97028.72;;;17.99;70.37
56719;BME280;42597;40.636;0.278;2023-05-23T01:10:13;97028.25;;;18.15;68.92
56719;BME280;42597;40.636;0.278;2023-05-23T01:12:57;97022.16;;;17.86;71.69
56719;BME280;42597;40.636;0.278;2023-05-23T01:15:36;97015.22;;;17.39;75.04
56719;BME280;42597;40.636;0.278;2023-05-23T01:18:23;97011.22;;;17.68;72.09
56719;BME280;42597;40.636;0.278;2023-05-23T01:20:54;97006.50;;;17.97;69.84
56719;BME280;42597;40.636;0.278;2023-05-23T01:23:23;97000.72;;;17.60;72.75
56719;BME280;42597;40.636;0.278;2023-05-23T01:28:46;96988.69;;;17.46;74.06
56719;BME280;42597;40.636;0.278;2023-05-23T01:31:15;96983.03;;;18.00;70.35
56719;BME280;42597;40.636;0.278;2023-05-23T01:33:42;96987.53;;;18.32;66.61
56719;BME280;42597;40.636;0.278;2023-05-23T01:36:12;96986.19;;;17.95;70.52
56719;BME280;42597;40.636;0.278;2023-05-23T01:38:39;96984.69;;;17.80;71.65
56719;BME280;42597;40.636;0.278;2023-05-23T01:41:05;96978.75;;;17.99;70.05
56719;BME280;42597;40.636;0.278;2023-05-23T01:43:30;96976.00;;;17.99;69.53
56719;BME280;42597;40.636;0.278;2023-05-23T01:45:56;96965.97;;;18.41;66.46
56719;BME280;42597;40.636;0.278;2023-05-23T01:48:24;96969.84;;;18.47;65.69
56719;BME280;42597;40.636;0.278;2023-05-23T01:50:51;96972.19;;;17.82;70.58
56719;BME280;42597;40.636;0.278;2023-05-23T01:53:20;96969.72;;;18.09;68.18
56719;BME280;42597;40.636;0.278;2023-05-23T01:55:46;96981.03;;;18.11;67.64
56719;BME280;42597;40.636;0.278;2023-05-23T01:58:12;96974.19;;;18.41;66.08
56719;BME280;42597;40.636;0.278;2023-05-23T02:00:38;96974.31;;;18.23;67.35
56719;BME280;42597;40.636;0.278;2023-05-23T02:03:04;96972.75;;;18.25;66.88
56719;BME280;42597;40.636;0.278;2023-05-23T02:05:30;96987.81;;;18.48;65.48
56719;BME280;42597;40.636;0.278;2023-05-23T02:07:55;96983.66;;;18.29;66.57
56719;BME280;42597;40.636;0.278;2023-05-23T02:10:21;96972.75;;;18.25;67.40
56719;BME280;42597;40.636;0.278;2023-05-23T02:12:47;96983.09;;;17.86;69.86
56719;BME280;42597;40.636;0.278;2023-05-23T02:15:12;96974.53;;;17.76;69.87
56719;BME280;42597;40.636;0.278;2023-05-23T02:17:38;96984.75;;;17.51;71.98
56719;BME280;42597;40.636;0.278;2023-05-23T02:20:04;96987.19;;;16.99;75.63
56719;BME280;42597;40.636;0.278;2023-05-23T02:22:30;96979.34;;;17.37;73.58
56719;BME280;42597;40.636;0.278;2023-05-23T02:24:56;96975.31;;;17.73;70.57
56719;BME280;42597;40.636;0.278;2023-05-23T02:27:22;96986.94;;;18.03;68.28
56719;BME280;42597;40.636;0.278;2023-05-23T02:29:47;96974.13;;;18.52;65.28
56719;BME280;42597;40.636;0.278;2023-05-23T02:32:13;96984.66;;;17.72;70.34
56719;BME280;42597;40.636;0.278;2023-05-23T02:34:38;96983.09;;;17.86;68.71
56719;BME280;42597;40.636;0.278;2023-05-23T02:37:04;96979.19;;;17.87;68.98
56719;BME280;42597;40.636;0.278;2023-05-23T02:39:30;96977.22;;;17.91;68.62
56719;BME280;42597;40.636;0.278;2023-05-23T02:41:55;96966.44;;;18.32;66.04
56719;BME280;42597;40.636;0.278;2023-05-23T02:44:21;96972.66;;;17.52;71.41
56719;BME280;42597;40.636;0.278;2023-05-23T02:46:46;96966.84;;;17.28;73.21
56719;BME280;42597;40.636;0.278;2023-05-23T02:49:12;96976.22;;;17.27;72.65
56719;BME280;42597;40.636;0.278;2023-05-23T02:51:38;96970.41;;;17.18;73.79
56719;BME280;42597;40.636;0.278;2023-05-23T02:54:03;96957.13;;;17.27;72.91
56719;BME280;42597;40.636;0.278;2023-05-23T02:56:29;96968.03;;;17.27;72.88
56719;BME280;42597;40.636;0.278;2023-05-23T02:58:55;96958.31;;;17.23;73.12
56719;BME280;42597;40.636;0.278;2023-05-23T03:01:20;96956.69;;;17.40;71.71
56719;BME280;42597;40.636;0.278;2023-05-23T03:03:46;96950.91;;;18.18;67.12
56719;BME280;42597;40.636;0.278;2023-05-23T03:06:11;96962.66;;;18.08;67.43
56719;BME280;42597;40.636;0.278;2023-05-23T03:08:41;96964.44;;;18.36;65.75
56719;BME280;42597;40.636;0.278;2023-05-23T03:11:07;96964.16;;;18.23;66.05
56719;BME280;42597;40.636;0.278;2023-05-23T03:13:36;96975.34;;;17.66;69.14
56719;BME280;42597;40.636;0.278;2023-05-23T03:16:01;96974.91;;;17.86;68.43
56719;BME280;42597;40.636;0.278;2023-05-23T03:18:27;96971.84;;;18.43;65.29
56719;BME280;42597;40.636;0.278;2023-05-23T03:20:52;96972.94;;;17.86;68.39
56719;BME280;42597;40.636;0.278;2023-05-23T03:23:18;96980.81;;;17.59;69.91
56719;BME280;42597;40.636;0.278;2023-05-23T03:25:43;96966.84;;;17.28;71.43
56719;BME280;42597;40.636;0.278;2023-05-23T03:28:09;96969.94;;;17.48;70.59
56719;BME280;42597;40.636;0.278;2023-05-23T03:30:36;96961.25;;;17.71;68.83
56719;BME280;42597;40.636;0.278;2023-05-23T03:33:02;96962.88;;;17.65;69.61
56719;BME280;42597;40.636;0.278;2023-05-23T03:35:28;96958.81;;;18.02;67.32
56719;BME280;42597;40.636;0.278;2023-05-23T03:37:53;96950.72;;;17.73;68.68
56719;BME280;42597;40.636;0.278;2023-05-23T03:40:19;96949.94;;;17.80;68.05
56719;BME280;42597;40.636;0.278;2023-05-23T03:42:47;96952.03;;;17.37;71.42
56719;BME280;42597;40.636;0.278;2023-05-23T03:45:12;96945.47;;;17.02;73.69
56719;BME280;42597;40.636;0.278;2023-05-23T03:47:38;96934.16;;;17.00;74.07
56719;BME280;42597;40.636;0.278;2023-05-23T03:50:04;96938.06;;;17.06;74.08
56719;BME280;42597;40.636;0.278;2023-05-23T03:52:30;96944.22;;;17.35;72.22
56719;BME280;42597;40.636;0.278;2023-05-23T03:54:56;96949.63;;;17.53;71.07
56719;BME280;42597;40.636;0.278;2023-05-23T03:57:21;96951.97;;;17.51;71.23
56719;BME280;42597;40.636;0.278;2023-05-23T03:59:47;96947.44;;;17.01;74.88
56719;BME280;42597;40.636;0.278;2023-05-23T04:02:12;96945.06;;;17.14;74.16
56719;BME280;42597;40.636;0.278;2023-05-23T04:04:38;96949.34;;;17.19;74.34
56719;BME280;42597;40.636;0.278;2023-05-23T04:07:04;96959.81;;;17.49;72.13
56719;BME280;42597;40.636;0.278;2023-05-23T04:09:30;96954.41;;;17.20;74.43
56719;BME280;42597;40.636;0.278;2023-05-23T04:11:56;96957.88;;;17.32;73.53
56719;BME280;42597;40.636;0.278;2023-05-23T04:14:22;96956.69;;;17.40;73.04
56719;BME280;42597;40.636;0.278;2023-05-23T04:16:50;96955.53;;;17.41;73.74
56719;BME280;42597;40.636;0.278;2023-05-23T04:19:16;96957.47;;;17.44;73.28
56719;BME280;42597;40.636;0.278;2023-05-23T04:21:41;96962.25;;;16.90;76.85
56719;BME280;42597;40.636;0.278;2023-05-23T04:24:07;96962.13;;;17.47;72.40
56719;BME280;42597;40.636;0.278;2023-05-23T04:26:32;96962.81;;;17.72;71.23
56719;BME280;42597;40.636;0.278;2023-05-23T04:29:00;96970.59;;;17.85;70.30
56719;BME280;42597;40.636;0.278;2023-05-23T04:31:26;96963.69;;;17.48;72.96
56719;BME280;42597;40.636;0.278;2023-05-23T04:33:52;96972.34;;;17.21;75.56
56719;BME280;42597;40.636;0.278;2023-05-23T04:36:17;96963.75;;;17.23;76.11
56719;BME280;42597;40.636;0.278;2023-05-23T04:38:43;96961.25;;;17.71;71.46
56719;BME280;42597;40.636;0.278;2023-05-23T04:41:08;96957.13;;;17.20;75.91
56719;BME280;42597;40.636;0.278;2023-05-23T04:43:37;96971.59;;;17.17;77.53
56719;BME280;42597;40.636;0.278;2023-05-23T04:46:07;96968.81;;;17.32;75.42
56719;BME280;42597;40.636;0.278;2023-05-23T04:48:34;96977.41;;;17.26;76.95
56719;BME280;42597;40.636;0.278;2023-05-23T04:51:01;96976.28;;;17.13;78.07
56719;BME280;42597;40.636;0.278;2023-05-23T04:53:30;96977.00;;;17.35;76.50
56719;BME280;42597;40.636;0.278;2023-05-23T04:55:55;96982.38;;;17.60;72.90
56719;BME280;42597;40.636;0.278;2023-05-23T04:58:21;96978.13;;;17.52;74.05
56719;BME280;42597;40.636;0.278;2023-05-23T05:00:47;96981.25;;;17.50;74.37
56719;BME280;42597;40.636;0.278;2023-05-23T05:03:12;96982.06;;;17.37;75.61
56719;BME280;42597;40.636;0.278;2023-05-23T05:05:38;96990.28;;;17.30;77.16
56719;BME280;42597;40.636;0.278;2023-05-23T05:08:03;97000.47;;;17.00;79.40
56719;BME280;42597;40.636;0.278;2023-05-23T05:10:29;96994.97;;;17.25;78.08
56719;BME280;42597;40.636;0.278;2023-05-23T05:12:54;96990.28;;;17.37;76.23
56719;BME280;42597;40.636;0.278;2023-05-23T05:15:20;96984.72;;;17.62;74.17
56719;BME280;42597;40.636;0.278;2023-05-23T05:17:45;96989.88;;;17.35;76.54
56719;BME280;42597;40.636;0.278;2023-05-23T05:20:11;96980.91;;;17.16;78.47
56719;BME280;42597;40.636;0.278;2023-05-23T05:22:37;96996.53;;;17.26;78.06
56719;BME280;42597;40.636;0.278;2023-05-23T05:25:05;96994.97;;;17.29;77.43
56719;BME280;42597;40.636;0.278;2023-05-23T05:27:32;96995.72;;;17.37;75.67
56719;BME280;42597;40.636;0.278;2023-05-23T05:29:57;97006.31;;;17.06;79.63
56719;BME280;42597;40.636;0.278;2023-05-23T05:32:28;97005.06;;;17.36;76.64
56719;BME280;42597;40.636;0.278;2023-05-23T05:34:55;97001.97;;;17.26;78.79
56719;BME280;42597;40.636;0.278;2023-05-23T05:37:21;97010.53;;;17.39;77.59
56719;BME280;42597;40.636;0.278;2023-05-23T05:39:46;96999.66;;;17.18;79.54
56719;BME280;42597;40.636;0.278;2023-05-23T05:42:12;96998.81;;;17.49;76.87
56719;BME280;42597;40.636;0.278;2023-05-23T05:44:37;97002.75;;;17.23;78.85
56719;BME280;42597;40.636;0.278;2023-05-23T05:47:03;96994.97;;;17.22;79.09
56719;BME280;42597;40.636;0.278;2023-05-23T05:49:28;97001.22;;;17.22;79.23
56719;BME280;42597;40.636;0.278;2023-05-23T05:51:54;97000.38;;;17.40;77.61
56719;BME280;42597;40.636;0.278;2023-05-23T05:54:20;97002.69;;;17.52;76.75
56719;BME280;42597;40.636;0.278;2023-05-23T05:56:46;97008.97;;;17.49;77.26
56719;BME280;42597;40.636;0.278;2023-05-23T05:59:12;97001.16;;;17.40;78.27
56719;BME280;42597;40.636;0.278;2023-05-23T06:01:37;97010.53;;;17.46;77.72
56719;BME280;42597;40.636;0.278;2023-05-23T06:04:03;97007.84;;;17.21;79.61
56719;BME280;42597;40.636;0.278;2023-05-23T06:06:28;96996.44;;;17.62;74.80
56719;BME280;42597;40.636;0.278;2023-05-23T06:08:54;97002.31;;;17.50;77.61
56719;BME280;42597;40.636;0.278;2023-05-23T06:11:19;97003.44;;;17.78;74.14
56719;BME280;42597;40.636;0.278;2023-05-23T06:13:45;97003.34;;;17.99;72.50
56719;BME280;42597;40.636;0.278;2023-05-23T06:16:10;96995.59;;;17.72;74.94
56719;BME280;42597;40.636;0.278;2023-05-23T06:18:36;96996.72;;;17.93;73.66
56719;BME280;42597;40.636;0.278;2023-05-23T06:21:02;96991.31;;;17.82;73.32
56719;BME280;42597;40.636;0.278;2023-05-23T06:23:27;97000.28;;;17.86;75.30
56719;BME280;42597;40.636;0.278;2023-05-23T06:25:53;96997.13;;;17.88;74.68
56719;BME280;42597;40.636;0.278;2023-05-23T06:28:18;96994.44;;;17.73;76.87
56719;BME280;42597;40.636;0.278;2023-05-23T06:30:44;97004.22;;;17.74;77.17
56719;BME280;42597;40.636;0.278;2023-05-23T06:33:09;97001.66;;;18.23;73.18
56719;BME280;42597;40.636;0.278;2023-05-23T06:35:35;97004.56;;;17.87;76.09
56719;BME280;42597;40.636;0.278;2023-05-23T06:38:01;97001.25;;;18.21;71.10
56719;BME280;42597;40.636;0.278;2023-05-23T06:40:27;96998.47;;;18.35;70.66
56719;BME280;42597;40.636;0.278;2023-05-23T06:42:52;97011.19;;;17.90;75.54
56719;BME280;42597;40.636;0.278;2023-05-23T06:45:18;97000.28;;;17.90;76.50
56719;BME280;42597;40.636;0.278;2023-05-23T06:47:44;97004.09;;;18.03;75.93
56719;BME280;42597;40.636;0.278;2023-05-23T06:50:10;97003.69;;;18.08;76.04
56719;BME280;42597;40.636;0.278;2023-05-23T06:52:35;96998.28;;;17.97;75.79
56719;BME280;42597;40.636;0.278;2023-05-23T06:55:01;97003.66;;;18.12;75.49
56719;BME280;42597;40.636;0.278;2023-05-23T06:57:26;97002.91;;;18.11;75.51
56719;BME280;42597;40.636;0.278;2023-05-23T06:59:52;96999.78;;;18.09;74.71
56719;BME280;42597;40.636;0.278;2023-05-23T07:02:17;97000.91;;;18.19;74.84
56719;BME280;42597;40.636;0.278;2023-05-23T07:04:43;97013.75;;;18.29;72.31
56719;BME280;42597;40.636;0.278;2023-05-23T07:07:09;97010.28;;;18.21;74.17
56719;BME280;42597;40.636;0.278;2023-05-23T07:09:34;97007.88;;;18.31;74.34
56719;BME280;42597;40.636;0.278;2023-05-23T07:12:00;97014.94;;;18.24;74.62
56719;BME280;42597;40.636;0.278;2023-05-23T07:14:26;97014.13;;;18.28;75.02
56719;BME280;42597;40.636;0.278;2023-05-23T07:16:51;97010.56;;;18.41;73.99
56719;BME280;42597;40.636;0.278;2023-05-23T07:19:17;97018.78;;;18.38;74.10
56719;BME280;42597;40.636;0.278;2023-05-23T07:21:42;97012.44;;;18.52;73.38
56719;BME280;42597;40.636;0.278;2023-05-23T07:24:08;97015.47;;;18.61;72.82
56719;BME280;42597;40.636;0.278;2023-05-23T07:26:33;97014.66;;;18.67;72.08
56719;BME280;42597;40.636;0.278;2023-05-23T07:28:59;97012.97;;;18.88;71.76
56719;BME280;42597;40.636;0.278;2023-05-23T07:31:25;97015.66;;;18.95;69.25
56719;BME280;42597;40.636;0.278;2023-05-23T07:33:50;97012.22;;;18.84;69.89
56719;BME280;42597;40.636;0.278;2023-05-23T07:36:16;97014.63;;;18.78;70.38
56719;BME280;42597;40.636;0.278;2023-05-23T07:38:42;97008.44;;;18.70;71.44
56719;BME280;42597;40.636;0.278;2023-05-23T07:41:07;97014.59;;;18.82;70.33
56719;BME280;42597;40.636;0.278;2023-05-23T07:43:33;97021.69;;;18.68;71.10
56719;BME280;42597;40.636;0.278;2023-05-23T07:45:58;97016.06;;;18.93;69.85
56719;BME280;42597;40.636;0.278;2023-05-23T07:48:24;97018.22;;;19.16;70.12
56719;BME280;42597;40.636;0.278;2023-05-23T07:50:51;97033.94;;;19.05;70.28
56719;BME280;42597;40.636;0.278;2023-05-23T07:53:20;97016.91;;;19.32;68.60
56719;BME280;42597;40.636;0.278;2023-05-23T07:55:46;97016.91;;;19.32;68.22
56719;BME280;42597;40.636;0.278;2023-05-23T07:58:12;97017.47;;;19.12;68.76
56719;BME280;42597;40.636;0.278;2023-05-23T08:00:37;97015.22;;;19.41;67.26
56719;BME280;42597;40.636;0.278;2023-05-23T08:03:05;97028.38;;;19.57;65.59
56719;BME280;42597;40.636;0.278;2023-05-23T08:05:31;97020.81;;;19.72;62.18
56719;BME280;42597;40.636;0.278;2023-05-23T08:07:57;97028.53;;;19.43;64.86
56719;BME280;42597;40.636;0.278;2023-05-23T08:10:23;97022.94;;;19.54;65.34
56719;BME280;42597;40.636;0.278;2023-05-23T08:12:48;97028.81;;;19.52;66.24
56719;BME280;42597;40.636;0.278;2023-05-23T08:15:14;97017.75;;;19.66;63.08
56719;BME280;42597;40.636;0.278;2023-05-23T08:17:39;97027.22;;;19.62;65.18
56719;BME280;42597;40.636;0.278;2023-05-23T08:20:05;97010.13;;;19.43;66.22
56719;BME280;42597;40.636;0.278;2023-05-23T08:22:34;97013.50;;;19.58;66.19
56719;BME280;42597;40.636;0.278;2023-05-23T08:24:59;96995.88;;;19.59;65.87
56719;BME280;42597;40.636;0.278;2023-05-23T08:27:25;97003.34;;;19.55;65.47
56719;BME280;42597;40.636;0.278;2023-05-23T08:29:50;97008.44;;;19.53;64.69
56719;BME280;42597;40.636;0.278;2023-05-23T08:32:16;97004.75;;;19.33;65.08
56719;BME280;42597;40.636;0.278;2023-05-23T08:34:42;96997.00;;;19.65;64.31
56719;BME280;42597;40.636;0.278;2023-05-23T08:37:08;97002.13;;;19.63;64.71
56719;BME280;42597;40.636;0.278;2023-05-23T08:39:33;96997.00;;;19.65;64.54
56719;BME280;42597;40.636;0.278;2023-05-23T08:41:59;97002.78;;;19.75;64.46
56719;BME280;42597;40.636;0.278;2023-05-23T08:44:25;97007.53;;;19.70;64.53
56719;BME280;42597;40.636;0.278;2023-05-23T08:46:52;96985.38;;;19.88;64.34
56719;BME280;42597;40.636;0.278;2023-05-23T08:49:17;97016.75;;;19.84;64.02
56719;BME280;42597;40.636;0.278;2023-05-23T08:51:44;96987.06;;;19.79;64.23
56719;BME280;42597;40.636;0.278;2023-05-23T08:54:11;96988.44;;;19.94;63.48
56719;BME280;42597;40.636;0.278;2023-05-23T08:56:39;96993.19;;;19.90;63.26
56719;BME280;42597;40.636;0.278;2023-05-23T08:59:06;96993.72;;;19.78;63.57
56719;BME280;42597;40.636;0.278;2023-05-23T09:01:33;96989.25;;;19.91;62.44
56719;BME280;42597;40.636;0.278;2023-05-23T09:04:00;97003.97;;;20.04;62.35
56719;BME280;42597;40.636;0.278;2023-05-23T09:06:29;97003.75;;;19.91;63.07
56719;BME280;42597;40.636;0.278;2023-05-23T09:08:56;97007.13;;;20.03;61.84
56719;BME280;42597;40.636;0.278;2023-05-23T09:11:22;97004.63;;;19.81;62.85
56719;BME280;42597;40.636;0.278;2023-05-23T09:13:49;97004.91;;;19.94;63.10
56719;BME280;42597;40.636;0.278;2023-05-23T09:16:15;97003.72;;;19.95;62.94
56719;BME280;42597;40.636;0.278;2023-05-23T09:18:45;97006.91;;;20.20;62.77
56719;BME280;42597;40.636;0.278;2023-05-23T09:21:12;97010.97;;;20.09;62.31
56719;BME280;42597;40.636;0.278;2023-05-23T09:23:40;97010.25;;;20.05;61.91
56719;BME280;42597;40.636;0.278;2023-05-23T09:26:10;97012.81;;;19.85;63.45
56719;BME280;42597;40.636;0.278;2023-05-23T09:28:38;97004.56;;;20.19;62.32
56719;BME280;42597;40.636;0.278;2023-05-23T09:31:06;97008.00;;;20.27;62.02
56719;BME280;42597;40.636;0.278;2023-05-23T09:33:42;97007.84;;;20.10;61.64
56719;BME280;42597;40.636;0.278;2023-05-23T09:36:08;97009.50;;;20.01;62.47
56719;BME280;42597;40.636;0.278;2023-05-23T09:38:38;97006.16;;;20.16;61.86
56719;BME280;42597;40.636;0.278;2023-05-23T09:41:04;97015.28;;;20.37;61.78
56719;BME280;42597;40.636;0.278;2023-05-23T09:43:30;97016.31;;;20.19;62.50
56719;BME280;42597;40.636;0.278;2023-05-23T09:46:09;97016.38;;;20.16;62.28
56719;BME280;42597;40.636;0.278;2023-05-23T09:48:35;97014.44;;;20.13;63.46
56719;BME280;42597;40.636;0.278;2023-05-23T09:51:05;97021.75;;;20.23;62.68
56719;BME280;42597;40.636;0.278;2023-05-23T09:53:31;97015.34;;;20.33;62.19
56719;BME280;42597;40.636;0.278;2023-05-23T09:55:58;97012.44;;;20.75;61.05
56719;BME280;42597;40.636;0.278;2023-05-23T09:58:26;97013.41;;;20.61;59.45
56719;BME280;42597;40.636;0.278;2023-05-23T10:00:52;97019.16;;;20.43;59.47
56719;BME280;42597;40.636;0.278;2023-05-23T10:03:29;97016.78;;;20.41;59.36
56719;BME280;42597;40.636;0.278;2023-05-23T10:06:03;97005.25;;;20.81;58.05
56719;BME280;42597;40.636;0.278;2023-05-23T10:08:45;97019.09;;;20.46;58.60
56719;BME280;42597;40.636;0.278;2023-05-23T10:13:44;97018.84;;;20.64;58.16
56719;BME280;42597;40.636;0.278;2023-05-23T10:18:48;97001.91;;;20.69;59.34
56719;BME280;42597;40.636;0.278;2023-05-23T10:21:24;97009.31;;;20.73;59.72
56719;BME280;42597;40.636;0.278;2023-05-23T10:23:58;97013.38;;;20.64;59.55
56719;BME280;42597;40.636;0.278;2023-05-23T10:26:26;97015.19;;;20.75;59.87
56719;BME280;42597;40.636;0.278;2023-05-23T10:28:52;97012.97;;;20.89;60.25
56719;BME280;42597;40.636;0.278;2023-05-23T10:31:19;97018.75;;;20.72;60.38
56719;BME280;42597;40.636;0.278;2023-05-23T10:33:51;97022.38;;;20.65;59.78
56719;BME280;42597;40.636;0.278;2023-05-23T10:36:26;97013.63;;;20.97;59.70
56719;BME280;42597;40.636;0.278;2023-05-23T10:39:18;97008.13;;;20.97;59.75
56719;BME280;42597;40.636;0.278;2023-05-23T10:41:50;97015.53;;;20.77;60.47
56719;BME280;42597;40.636;0.278;2023-05-23T10:44:20;97016.16;;;20.88;60.29
56719;BME280;42597;40.636;0.278;2023-05-23T10:46:50;97015.66;;;20.93;60.21
56719;BME280;42597;40.636;0.278;2023-05-23T10:49:36;97012.81;;;21.00;59.61
56719;BME280;42597;40.636;0.278;2023-05-23T10:52:03;97017.22;;;21.17;59.19
56719;BME280;42597;40.636;0.278;2023-05-23T10:54:41;97014.78;;;21.23;58.98
56719;BME280;42597;40.636;0.278;2023-05-23T10:57:09;97016.50;;;21.13;58.00
56719;BME280;42597;40.636;0.278;2023-05-23T10:59:37;97015.91;;;21.02;57.90
56719;BME280;42597;40.636;0.278;2023-05-23T11:02:11;97024.53;;;20.77;58.45
56719;BME280;42597;40.636;0.278;2023-05-23T11:04:37;97020.44;;;21.12;57.68
56719;BME280;42597;40.636;0.278;2023-05-23T11:07:03;97027.13;;;20.88;58.81
56719;BME280;42597;40.636;0.278;2023-05-23T11:09:29;97009.41;;;21.16;56.68
56719;BME280;42597;40.636;0.278;2023-05-23T11:19:37;97027.44;;;21.17;54.46
56719;BME280;42597;40.636;0.278;2023-05-23T11:22:05;97014.84;;;21.19;53.80
56719;BME280;42597;40.636;0.278;2023-05-23T11:24:54;97015.91;;;21.02;52.68
56719;BME280;42597;40.636;0.278;2023-05-23T11:27:34;97026.88;;;21.02;54.10
56719;BME280;42597;40.636;0.278;2023-05-23T11:30:14;97008.50;;;20.99;52.97
56719;BME280;42597;40.636;0.278;2023-05-23T11:32:42;97014.97;;;21.36;51.92
56719;BME280;42597;40.636;0.278;2023-05-23T11:35:15;97019.72;;;21.55;50.76
56719;BME280;42597;40.636;0.278;2023-05-23T11:37:42;97018.22;;;21.51;49.82
56719;BME280;42597;40.636;0.278;2023-05-23T11:40:31;97021.81;;;21.24;49.40
56719;BME280;42597;40.636;0.278;2023-05-23T11:42:58;97022.38;;;21.39;49.69
56719;BME280;42597;40.636;0.278;2023-05-23T11:45:25;97022.13;;;21.53;48.48
56719;BME280;42597;40.636;0.278;2023-05-23T11:47:52;97032.28;;;21.33;48.46
56719;BME280;42597;40.636;0.278;2023-05-23T11:50:18;97015.91;;;21.49;50.51
56719;BME280;42597;40.636;0.278;2023-05-23T11:52:46;97010.56;;;21.62;50.86
56719;BME280;42597;40.636;0.278;2023-05-23T11:55:19;97018.94;;;21.35;50.09
56719;BME280;42597;40.636;0.278;2023-05-23T11:57:46;97027.88;;;21.39;51.45
56719;BME280;42597;40.636;0.278;2023-05-23T12:00:12;97024.94;;;21.03;53.24
56719;BME280;42597;40.636;0.278;2023-05-23T12:02:39;97021.09;;;21.20;53.44
56719;BME280;42597;40.636;0.278;2023-05-23T12:05:09;97014.53;;;21.37;52.85
56719;BME280;42597;40.636;0.278;2023-05-23T12:07:48;97012.66;;;21.54;51.95
56719;BME280;42597;40.636;0.278;2023-05-23T12:10:17;97023.47;;;21.65;52.56
56719;BME280;42597;40.636;0.278;2023-05-23T12:12:44;97026.13;;;21.49;53.54
56719;BME280;42597;40.636;0.278;2023-05-23T12:15:10;97025.53;;;21.37;53.60
56719;BME280;42597;40.636;0.278;2023-05-23T12:17:44;97022.22;;;21.23;54.55
56719;BME280;42597;40.636;0.278;2023-05-23T12:20:12;97014.47;;;21.41;53.99
56719;BME280;42597;40.636;0.278;2023-05-23T12:22:38;97015.38;;;21.34;54.14
56719;BME280;42597;40.636;0.278;2023-05-23T12:25:07;97013.81;;;21.57;53.59
56719;BME280;42597;40.636;0.278;2023-05-23T12:27:34;97007.25;;;21.27;54.32
56719;BME280;42597;40.636;0.278;2023-05-23T12:32:38;97006.88;;;21.25;54.90
56719;BME280;42597;40.636;0.278;2023-05-23T12:35:04;97006.47;;;21.50;54.55
56719;BME280;42597;40.636;0.278;2023-05-23T12:37:30;97008.66;;;21.39;54.44
56719;BME280;42597;40.636;0.278;2023-05-23T12:39:56;97003.66;;;21.30;54.91
56719;BME280;42597;40.636;0.278;2023-05-23T12:42:22;97001.31;;;21.29;55.20
56719;BME280;42597;40.636;0.278;2023-05-23T12:44:52;97000.97;;;21.50;54.98
56719;BME280;42597;40.636;0.278;2023-05-23T12:47:17;96993.84;;;21.53;55.12
56719;BME280;42597;40.636;0.278;2023-05-23T12:49:43;97007.59;;;21.29;54.78
56719;BME280;42597;40.636;0.278;2023-05-23T12:52:10;96995.06;;;21.28;55.65
56719;BME280;42597;40.636;0.278;2023-05-23T12:54:36;97010.88;;;21.20;56.19
56719;BME280;42597;40.636;0.278;2023-05-23T12:57:01;97003.50;;;21.41;55.80
56719;BME280;42597;40.636;0.278;2023-05-23T12:59:27;96995.53;;;21.47;55.86
56719;BME280;42597;40.636;0.278;2023-05-23T13:01:53;96998.09;;;21.10;57.21
56719;BME280;42597;40.636;0.278;2023-05-23T13:04:19;96989.97;;;21.50;56.05
56719;BME280;42597;40.636;0.278;2023-05-23T13:06:44;97002.06;;;21.33;56.04
56719;BME280;42597;40.636;0.278;2023-05-23T13:09:10;96999.19;;;21.40;55.77
56719;BME280;42597;40.636;0.278;2023-05-23T13:11:36;96996.16;;;21.54;55.00
56719;BME280;42597;40.636;0.278;2023-05-23T13:14:02;96998.56;;;21.52;55.31
56719;BME280;42597;40.636;0.278;2023-05-23T13:16:27;96997.88;;;21.48;55.70
56719;BME280;42597;40.636;0.278;2023-05-23T13:18:53;96989.97;;;21.50;56.13